Hilarium — WCZ4818 — position and weather

sailwx.info

Track history (hours):
 
Tides and Currents Weather Stations Pressure Air Temp Water Temp Dewpoint Dewpoint Depression Visibility Wind Speed Wind Dir Waves Ship Positions

Hilarium

Owner: SABRINA FISHERIES INC, NATICK, MA. More information available from US FCC via Universal Licensing System and Coast Guard Vessel Documentation Center.

Last reported at 2017-Nov-18 17:49 UTC. Time now 2017-Dec-12 02:57 UTC.
Position N 25°28' W 080°06'.
Warning: this ship's position is 23 days out of date.

Length 42 m; draft 2 m.

Type: Pleasure craft. MMSI: 366771490.

Date/timePositionNaut miles runAvg speedWind from/ knotsBaromVisibWave heightAir tempDewpointWater temp
2017-Nov-18 17:49N 25°28' W 080°06'412.6
2017-Nov-18 17:30N 25°32' W 080°05'713.1
2017-Nov-18 17:00N 25°39' W 080°05'713.8
2017-Nov-18 16:30N 25°46' W 080°05'713.7
2017-Nov-18 16:01N 25°53' W 080°05'713.6
2017-Nov-18 15:30N 25°59' W 080°05'612.7
2017-Nov-18 15:00N 26°06' W 080°06'2 4.8
2017-Nov-18 14:29N 26°04' W 080°08'0 0.0
2017-Nov-18 13:59N 26°04' W 080°08'0 0.0
2017-Nov-18 13:29N 26°04' W 080°08'0 0.0
2017-Nov-18 12:59N 26°04' W 080°08'0 0.0
2017-Nov-18 12:29N 26°04' W 080°08'0 0.0
2017-Nov-18 11:59N 26°04' W 080°08'0 0.0
2017-Nov-18 11:29N 26°04' W 080°08'0 0.0
2017-Nov-18 10:59N 26°04' W 080°08'0 0.0
2017-Nov-18 10:29N 26°04' W 080°08'0 0.0
2017-Nov-18 09:59N 26°04' W 080°08'0 0.0
2017-Nov-18 09:20N 26°04' W 080°08'0 0.0
2017-Nov-18 08:59N 26°04' W 080°08'0 0.0
2017-Nov-18 08:29N 26°04' W 080°08'0 0.0
2017-Nov-18 07:59N 26°04' W 080°08'0 0.0
2017-Nov-18 07:29N 26°04' W 080°08'0 0.0
2017-Nov-18 06:50N 26°04' W 080°08'0 0.0
2017-Nov-18 06:20N 26°04' W 080°08'0 0.0
2017-Nov-18 05:50N 26°04' W 080°08'0 0.0
2017-Nov-18 05:20N 26°04' W 080°08'0 0.0
2017-Nov-18 04:50N 26°04' W 080°08'0 0.0
2017-Nov-18 04:23N 26°04' W 080°08'0 0.0
2017-Nov-18 03:53N 26°04' W 080°08'0 0.0
2017-Nov-18 03:20N 26°04' W 080°08'0 0.0
2017-Nov-18 02:53N 26°04' W 080°08'0 0.0
2017-Nov-18 02:23N 26°04' W 080°08'0 0.0
2017-Nov-18 01:53N 26°04' W 080°08'0 0.0
2017-Nov-18 01:23N 26°04' W 080°08'0 0.0
2017-Nov-18 00:53N 26°04' W 080°08'0 0.0
2017-Nov-18 00:23N 26°04' W 080°08'0 0.0
2017-Nov-17 23:53N 26°04' W 080°08'0 0.0
2017-Nov-17 23:26N 26°04' W 080°08'0 0.0
2017-Nov-17 22:53N 26°04' W 080°08'0 0.0
2017-Nov-17 22:26N 26°04' W 080°08'0 0.0
2017-Nov-17 21:56N 26°04' W 080°08'0 0.0
2017-Nov-17 21:26N 26°04' W 080°08'0 0.0
2017-Nov-17 20:56N 26°04' W 080°08'0 0.0
2017-Nov-17 20:26N 26°04' W 080°08'1 2.5
2017-Nov-17 20:00N 26°04' W 080°07'5 9.2
2017-Nov-17 19:30N 26°08' W 080°05'0 0.9
2017-Nov-17 19:00N 26°08' W 080°05'4 8.7
2017-Nov-17 18:30N 26°04' W 080°07'1 1.5
2017-Nov-17 17:59N 26°04' W 080°08'0 0.0
2017-Nov-17 17:29N 26°04' W 080°08'0 0.0
2017-Nov-17 16:59N 26°04' W 080°08'0 0.0
2017-Nov-17 16:29N 26°04' W 080°08'0 0.0
2017-Nov-17 15:59N 26°04' W 080°08'0 0.0
2017-Nov-17 15:29N 26°04' W 080°08'0 0.0
2017-Nov-17 14:59N 26°04' W 080°08'0 0.0
2017-Nov-17 14:29N 26°04' W 080°08'0 0.0
2017-Nov-17 13:59N 26°04' W 080°08'0 0.0
2017-Nov-17 13:28N 26°04' W 080°08'0 0.0
2017-Nov-17 12:58N 26°04' W 080°08'0 0.0
2017-Nov-17 12:28N 26°04' W 080°08'0 0.0
2017-Nov-17 11:58N 26°04' W 080°08'0 0.0
2017-Nov-17 11:19N 26°04' W 080°08'0 0.0
2017-Nov-17 10:49N 26°04' W 080°08'0 0.0
2017-Nov-17 10:19N 26°04' W 080°08'0 0.0
2017-Nov-17 09:49N 26°04' W 080°08'0 0.0
2017-Nov-17 09:19N 26°04' W 080°08'0 0.0
2017-Nov-17 08:52N 26°04' W 080°08'0 0.0
2017-Nov-17 08:22N 26°04' W 080°08'0 0.0
2017-Nov-17 07:52N 26°04' W 080°08'0 0.0
2017-Nov-17 07:22N 26°04' W 080°08'0 0.0
2017-Nov-17 06:52N 26°04' W 080°08'0 0.0
2017-Nov-17 06:22N 26°04' W 080°08'0 0.0
2017-Nov-17 05:52N 26°04' W 080°08'0 0.0
2017-Nov-17 05:22N 26°04' W 080°08'0 0.0
2017-Nov-17 04:52N 26°04' W 080°08'0 0.0
2017-Nov-17 04:22N 26°04' W 080°08'0 0.0
2017-Nov-17 03:55N 26°04' W 080°08'0 0.0
2017-Nov-17 03:25N 26°04' W 080°08'0 0.0
2017-Nov-17 02:55N 26°04' W 080°08'0 0.0
2017-Nov-17 02:25N 26°04' W 080°08'0 0.0
2017-Nov-17 01:55N 26°04' W 080°08'0 0.0
2017-Nov-17 01:25N 26°04' W 080°08'0 0.0
2017-Nov-17 00:55N 26°04' W 080°08'0 0.0
2017-Nov-17 00:25N 26°04' W 080°08'0 0.0
2017-Nov-16 23:55N 26°04' W 080°08'0 0.0
2017-Nov-16 23:25N 26°04' W 080°08'0 0.0
2017-Nov-16 22:55N 26°04' W 080°08'0 0.0
2017-Nov-16 22:28N 26°04' W 080°08'0 0.0
2017-Nov-16 21:55N 26°04' W 080°08'0 0.0
2017-Nov-16 21:28N 26°04' W 080°08'0 0.0
2017-Nov-16 20:58N 26°04' W 080°08'0 0.0
2017-Nov-16 20:28N 26°04' W 080°08'0 0.1
2017-Nov-16 19:54N 26°04' W 080°08'0 0.0
2017-Nov-16 19:24N 26°04' W 080°08'0 0.0
2017-Nov-16 18:54N 26°04' W 080°08'0 0.0
2017-Nov-16 18:30N 26°04' W 080°08'0 0.0
2017-Nov-16 17:54N 26°04' W 080°08'  
Track history (hours):
 
Tides and Currents Weather Stations Pressure Air Temp Water Temp Dewpoint Dewpoint Depression Visibility Wind Speed Wind Dir Waves Ship Positions

Hilarium

Owner: SABRINA FISHERIES INC, NATICK, MA. More information available from US FCC via Universal Licensing System and Coast Guard Vessel Documentation Center.

Last reported at 2017-Nov-18 17:49 UTC. Time now 2017-Dec-12 02:57 UTC.
Position N 25°28' W 080°06'.
Warning: this ship's position is 23 days out of date.

Length 42 m; draft 2 m.

Type: Pleasure craft. MMSI: 366771490.

Date/timePositionNaut miles runAvg speedWind from/ knotsBaromVisibWave heightAir tempDewpointWater temp
2017-Nov-18 17:49N 25°28' W 080°06'412.6
2017-Nov-18 17:30N 25°32' W 080°05'713.1
2017-Nov-18 17:00N 25°39' W 080°05'713.8
2017-Nov-18 16:30N 25°46' W 080°05'713.7
2017-Nov-18 16:01N 25°53' W 080°05'713.6
2017-Nov-18 15:30N 25°59' W 080°05'612.7
2017-Nov-18 15:00N 26°06' W 080°06'2 4.8
2017-Nov-18 14:29N 26°04' W 080°08'0 0.0
2017-Nov-18 13:59N 26°04' W 080°08'0 0.0
2017-Nov-18 13:29N 26°04' W 080°08'0 0.0
2017-Nov-18 12:59N 26°04' W 080°08'0 0.0
2017-Nov-18 12:29N 26°04' W 080°08'0 0.0
2017-Nov-18 11:59N 26°04' W 080°08'0 0.0
2017-Nov-18 11:29N 26°04' W 080°08'0 0.0
2017-Nov-18 10:59N 26°04' W 080°08'0 0.0
2017-Nov-18 10:29N 26°04' W 080°08'0 0.0
2017-Nov-18 09:59N 26°04' W 080°08'0 0.0
2017-Nov-18 09:20N 26°04' W 080°08'0 0.0
2017-Nov-18 08:59N 26°04' W 080°08'0 0.0
2017-Nov-18 08:29N 26°04' W 080°08'0 0.0
2017-Nov-18 07:59N 26°04' W 080°08'0 0.0
2017-Nov-18 07:29N 26°04' W 080°08'0 0.0
2017-Nov-18 06:50N 26°04' W 080°08'0 0.0
2017-Nov-18 06:20N 26°04' W 080°08'0 0.0
2017-Nov-18 05:50N 26°04' W 080°08'0 0.0
2017-Nov-18 05:20N 26°04' W 080°08'0 0.0
2017-Nov-18 04:50N 26°04' W 080°08'0 0.0
2017-Nov-18 04:23N 26°04' W 080°08'0 0.0
2017-Nov-18 03:53N 26°04' W 080°08'0 0.0
2017-Nov-18 03:20N 26°04' W 080°08'0 0.0
2017-Nov-18 02:53N 26°04' W 080°08'0 0.0
2017-Nov-18 02:23N 26°04' W 080°08'0 0.0
2017-Nov-18 01:53N 26°04' W 080°08'0 0.0
2017-Nov-18 01:23N 26°04' W 080°08'0 0.0
2017-Nov-18 00:53N 26°04' W 080°08'0 0.0
2017-Nov-18 00:23N 26°04' W 080°08'0 0.0
2017-Nov-17 23:53N 26°04' W 080°08'0 0.0
2017-Nov-17 23:26N 26°04' W 080°08'0 0.0
2017-Nov-17 22:53N 26°04' W 080°08'0 0.0
2017-Nov-17 22:26N 26°04' W 080°08'0 0.0
2017-Nov-17 21:56N 26°04' W 080°08'0 0.0
2017-Nov-17 21:26N 26°04' W 080°08'0 0.0
2017-Nov-17 20:56N 26°04' W 080°08'0 0.0
2017-Nov-17 20:26N 26°04' W 080°08'1 2.5
2017-Nov-17 20:00N 26°04' W 080°07'5 9.2
2017-Nov-17 19:30N 26°08' W 080°05'0 0.9
2017-Nov-17 19:00N 26°08' W 080°05'4 8.7
2017-Nov-17 18:30N 26°04' W 080°07'1 1.5
2017-Nov-17 17:59N 26°04' W 080°08'0 0.0
2017-Nov-17 17:29N 26°04' W 080°08'0 0.0
2017-Nov-17 16:59N 26°04' W 080°08'0 0.0
2017-Nov-17 16:29N 26°04' W 080°08'0 0.0
2017-Nov-17 15:59N 26°04' W 080°08'0 0.0
2017-Nov-17 15:29N 26°04' W 080°08'0 0.0
2017-Nov-17 14:59N 26°04' W 080°08'0 0.0
2017-Nov-17 14:29N 26°04' W 080°08'0 0.0
2017-Nov-17 13:59N 26°04' W 080°08'0 0.0
2017-Nov-17 13:28N 26°04' W 080°08'0 0.0
2017-Nov-17 12:58N 26°04' W 080°08'0 0.0
2017-Nov-17 12:28N 26°04' W 080°08'0 0.0
2017-Nov-17 11:58N 26°04' W 080°08'0 0.0
2017-Nov-17 11:19N 26°04' W 080°08'0 0.0
2017-Nov-17 10:49N 26°04' W 080°08'0 0.0
2017-Nov-17 10:19N 26°04' W 080°08'0 0.0
2017-Nov-17 09:49N 26°04' W 080°08'0 0.0
2017-Nov-17 09:19N 26°04' W 080°08'0 0.0
2017-Nov-17 08:52N 26°04' W 080°08'0 0.0
2017-Nov-17 08:22N 26°04' W 080°08'0 0.0
2017-Nov-17 07:52N 26°04' W 080°08'0 0.0
2017-Nov-17 07:22N 26°04' W 080°08'0 0.0
2017-Nov-17 06:52N 26°04' W 080°08'0 0.0
2017-Nov-17 06:22N 26°04' W 080°08'0 0.0
2017-Nov-17 05:52N 26°04' W 080°08'0 0.0
2017-Nov-17 05:22N 26°04' W 080°08'0 0.0
2017-Nov-17 04:52N 26°04' W 080°08'0 0.0
2017-Nov-17 04:22N 26°04' W 080°08'0 0.0
2017-Nov-17 03:55N 26°04' W 080°08'0 0.0
2017-Nov-17 03:25N 26°04' W 080°08'0 0.0
2017-Nov-17 02:55N 26°04' W 080°08'0 0.0
2017-Nov-17 02:25N 26°04' W 080°08'0 0.0
2017-Nov-17 01:55N 26°04' W 080°08'0 0.0
2017-Nov-17 01:25N 26°04' W 080°08'0 0.0
2017-Nov-17 00:55N 26°04' W 080°08'0 0.0
2017-Nov-17 00:25N 26°04' W 080°08'0 0.0
2017-Nov-16 23:55N 26°04' W 080°08'0 0.0
2017-Nov-16 23:25N 26°04' W 080°08'0 0.0
2017-Nov-16 22:55N 26°04' W 080°08'0 0.0
2017-Nov-16 22:28N 26°04' W 080°08'0 0.0
2017-Nov-16 21:55N 26°04' W 080°08'0 0.0
2017-Nov-16 21:28N 26°04' W 080°08'0 0.0
2017-Nov-16 20:58N 26°04' W 080°08'0 0.0
2017-Nov-16 20:28N 26°04' W 080°08'0 0.1
2017-Nov-16 19:54N 26°04' W 080°08'0 0.0
2017-Nov-16 19:24N 26°04' W 080°08'0 0.0
2017-Nov-16 18:54N 26°04' W 080°08'0 0.0
2017-Nov-16 18:30N 26°04' W 080°08'0 0.0
2017-Nov-16 17:54N 26°04' W 080°08'  

Dump ship's entire track history